ADDS METAR Data INFO
IDs: Format: Raw Decoded Include TAF

Data at: 0849 UTC 27 Jul 2017

KGGG 270753Z AUTO 19006KT 10SM CLR 26/24 A3002 RMK AO2 SLP155 T02610239
KGGG 270653Z AUTO 18007KT 10SM CLR 27/24 A3002 RMK AO2 SLP157 T02670239
KGGG 270553Z AUTO 19009KT 10SM CLR 27/24 A3003 RMK AO2 SLP161 T02720244 10339 20267 403500239 53002

KGGG 270539Z 2706/2806 17006KT P6SM BKN300
  FM271200 20006KT P6SM SCT005 SCT012 SCT300
  FM271500 23010KT P6SM SCT020 SCT300
  FM271700 22009KT P6SM SCT040 SCT300
  FM280100 19006KT P6SM BKN250


KTYR 270753Z AUTO 19011KT 10SM CLR 27/23 A3002 RMK AO2 SLP155 T02720233
KTYR 270653Z AUTO 18007KT 10SM CLR 27/24 A3003 RMK AO2 SLP159 T02720239
KTYR 270553Z AUTO 18010KT 10SM CLR 28/23 A3003 RMK AO2 SLP159 T02780233 10344 20278 403670244 51000

KTYR 270539Z 2706/2806 17007KT P6SM BKN300
  FM271200 20007KT P6SM SCT007 SCT012 SCT300
  FM271500 22010KT P6SM SCT020 SCT300
  FM271700 22010KT P6SM SCT040 SCT300
  FM280100 18008KT P6SM BKN250